createdAt,value
2022-09-03T00:00:45.675Z,2.00
2022-09-03T00:01:45.735Z,1.70
2022-09-03T00:02:45.838Z,2.10
2022-09-03T00:03:45.546Z,1.70
2022-09-03T00:04:45.504Z,1.90
2022-09-03T00:05:45.459Z,2.00
2022-09-03T00:06:45.414Z,1.70
2022-09-03T00:07:45.371Z,1.70
2022-09-03T00:08:45.327Z,1.90
2022-09-03T00:09:45.285Z,1.90
2022-09-03T00:10:45.239Z,1.90
2022-09-03T00:11:45.202Z,1.80
2022-09-03T00:12:45.153Z,1.90
2022-09-03T00:13:45.112Z,1.90
2022-09-03T00:14:45.068Z,2.00
2022-09-03T00:15:45.091Z,1.80
2022-09-03T00:16:44.986Z,1.80
2022-09-03T00:17:44.942Z,1.80
2022-09-03T00:18:44.895Z,2.10
2022-09-03T00:19:44.863Z,1.80
2022-09-03T00:20:44.815Z,1.90
2022-09-03T00:21:44.787Z,1.70
2022-09-03T00:22:44.725Z,1.90
2022-09-03T00:23:44.682Z,1.60
2022-09-03T00:24:44.644Z,1.60
2022-09-03T00:25:44.597Z,1.80
2022-09-03T00:26:44.548Z,2.00
2022-09-03T00:27:44.507Z,1.70
2022-09-03T00:28:44.462Z,1.50
2022-09-03T00:29:44.420Z,1.80
2022-09-03T00:30:44.380Z,1.60
2022-09-03T00:31:44.339Z,2.10
2022-09-03T00:32:44.292Z,1.80
2022-09-03T00:33:44.249Z,1.60
2022-09-03T00:34:44.206Z,1.90
2022-09-03T00:35:44.162Z,1.80
2022-09-03T00:36:44.119Z,1.80
2022-09-03T00:37:44.075Z,1.60
2022-09-03T00:38:44.032Z,1.90
2022-09-03T00:39:44.046Z,1.80
2022-09-03T00:40:43.950Z,1.80
2022-09-03T00:41:43.905Z,1.80
2022-09-03T00:42:44.063Z,2.00
2022-09-03T00:43:43.818Z,2.20
2022-09-03T00:44:43.772Z,1.90
2022-09-03T00:45:43.732Z,1.80
2022-09-03T00:46:43.742Z,1.80
2022-09-03T00:47:43.645Z,1.80
2022-09-03T00:48:43.600Z,1.80
2022-09-03T00:49:43.558Z,1.80
2022-09-03T00:50:43.517Z,1.70
2022-09-03T00:51:43.471Z,1.70
2022-09-03T00:52:43.427Z,1.80
2022-09-03T00:53:43.384Z,1.70
2022-09-03T00:54:43.340Z,1.50
2022-09-03T00:55:43.306Z,1.90
2022-09-03T00:56:43.260Z,2.20
2022-09-03T00:57:43.210Z,1.80
2022-09-03T00:58:43.174Z,1.80
2022-09-03T00:59:43.128Z,2.00
2022-09-03T01:00:43.080Z,2.00
2022-09-03T01:01:43.170Z,1.60
2022-09-03T01:02:43.165Z,1.80
2022-09-03T01:03:42.956Z,1.90
2022-09-03T01:04:42.908Z,1.90
2022-09-03T01:05:42.866Z,2.10
2022-09-03T01:06:42.821Z,2.00
2022-09-03T01:07:42.779Z,1.90
2022-09-03T01:08:44.036Z,2.10
2022-09-03T01:09:42.693Z,1.80
2022-09-03T01:10:42.650Z,1.80
2022-09-03T01:11:42.606Z,1.80
2022-09-03T01:12:42.563Z,1.70
2022-09-03T01:13:42.521Z,1.90
2022-09-03T01:14:42.475Z,1.90
2022-09-03T01:15:42.545Z,1.90
2022-09-03T01:16:42.390Z,1.70
2022-09-03T01:17:42.346Z,1.70
2022-09-03T01:18:42.300Z,1.70
2022-09-03T01:19:42.259Z,1.80
2022-09-03T01:20:42.216Z,1.60
2022-09-03T01:21:42.174Z,2.20
2022-09-03T01:22:42.128Z,1.90
2022-09-03T01:23:42.085Z,1.90
2022-09-03T01:24:42.043Z,2.00
2022-09-03T01:25:42.001Z,1.80
2022-09-03T01:26:41.955Z,2.10
2022-09-03T01:27:41.911Z,2.00
2022-09-03T01:28:41.868Z,2.20
2022-09-03T01:29:41.823Z,2.20
2022-09-03T01:30:41.837Z,1.90
2022-09-03T01:31:41.736Z,2.10
2022-09-03T01:32:41.694Z,1.80
2022-09-03T01:33:41.655Z,2.00
2022-09-03T01:34:41.607Z,1.90
2022-09-03T01:35:41.562Z,2.00
2022-09-03T01:36:41.518Z,2.30
2022-09-03T01:37:41.477Z,2.30
2022-09-03T01:38:41.430Z,2.00
2022-09-03T01:39:41.449Z,2.50
2022-09-03T01:40:41.347Z,2.20
2022-09-03T01:41:41.305Z,2.00
2022-09-03T01:42:41.257Z,2.30
2022-09-03T01:43:45.250Z,2.30
2022-09-03T01:44:41.170Z,2.30
2022-09-03T01:45:51.191Z,2.40
2022-09-03T01:46:41.241Z,2.40
2022-09-03T01:47:41.040Z,2.30
2022-09-03T01:48:40.993Z,2.40
2022-09-03T01:49:40.952Z,2.40
2022-09-03T01:50:40.908Z,2.40
2022-09-03T01:51:40.870Z,2.30
2022-09-03T01:52:41.024Z,2.70
2022-09-03T01:53:40.777Z,2.30
2022-09-03T01:54:40.735Z,2.30
2022-09-03T01:55:40.696Z,2.40
2022-09-03T01:56:40.648Z,2.60
2022-09-03T01:57:42.078Z,2.40
2022-09-03T01:58:40.563Z,2.40
2022-09-03T01:59:40.518Z,2.40
2022-09-03T02:00:40.469Z,2.50
2022-09-03T02:01:40.505Z,2.30
2022-09-03T02:02:40.484Z,2.60
2022-09-03T02:03:40.784Z,2.40
2022-09-03T02:04:40.297Z,2.40
2022-09-03T02:05:40.258Z,2.50
2022-09-03T02:06:40.208Z,2.30
2022-09-03T02:07:40.168Z,2.50
2022-09-03T02:08:40.123Z,2.70
2022-09-03T02:09:40.083Z,2.20
2022-09-03T02:11:39.990Z,2.60
2022-09-03T02:12:39.951Z,2.40
2022-09-03T02:13:39.901Z,2.40
2022-09-03T02:14:39.858Z,2.50
2022-09-03T02:15:39.928Z,2.50
2022-09-03T02:16:39.771Z,2.30
2022-09-03T02:17:39.729Z,2.50
2022-09-03T02:18:39.683Z,2.40
2022-09-03T02:19:39.640Z,2.10
2022-09-03T02:20:39.615Z,2.50
2022-09-03T02:21:39.554Z,2.40
2022-09-03T02:22:39.510Z,2.10
2022-09-03T02:23:39.462Z,2.00
2022-09-03T02:24:39.421Z,2.30
2022-09-03T02:25:39.375Z,2.30
2022-09-03T02:26:39.332Z,2.30
2022-09-03T02:27:39.291Z,2.60
2022-09-03T02:28:39.244Z,2.30
2022-09-03T02:29:39.204Z,2.30
2022-09-03T02:30:39.199Z,2.50
2022-09-03T02:31:39.112Z,2.40
2022-09-03T02:32:39.072Z,2.30
2022-09-03T02:33:39.021Z,2.20
2022-09-03T02:34:38.987Z,2.40
2022-09-03T02:35:38.936Z,2.30
2022-09-03T02:36:38.910Z,2.10
2022-09-03T02:37:38.875Z,2.30
2022-09-03T02:38:38.805Z,2.20
2022-09-03T02:39:39.514Z,2.20
2022-09-03T02:40:38.717Z,2.10
2022-09-03T02:41:38.671Z,2.50
2022-09-03T02:42:38.638Z,2.10
2022-09-03T02:43:38.585Z,2.10
2022-09-03T02:44:38.542Z,2.40
2022-09-03T02:45:38.616Z,2.10
2022-09-03T02:46:38.456Z,2.40
2022-09-03T02:47:38.407Z,2.10
2022-09-03T02:48:38.366Z,2.20
2022-09-03T02:49:38.324Z,2.10
2022-09-03T02:50:38.279Z,2.60
2022-09-03T02:51:38.232Z,2.00
2022-09-03T02:52:38.194Z,2.10
2022-09-03T02:53:38.143Z,2.20
2022-09-03T02:54:38.101Z,2.10
2022-09-03T02:55:38.056Z,2.20
2022-09-03T02:56:38.015Z,2.10
2022-09-03T02:57:37.969Z,2.00
2022-09-03T02:58:37.929Z,2.20
2022-09-03T02:59:37.884Z,2.00
2022-09-03T03:00:37.838Z,2.10
2022-09-03T03:01:37.893Z,2.50
2022-09-03T03:02:37.844Z,2.40
2022-09-03T03:03:37.704Z,2.20
2022-09-03T03:04:37.661Z,2.10
2022-09-03T03:05:37.616Z,2.50
2022-09-03T03:06:37.576Z,2.20
2022-09-03T03:07:37.526Z,2.20
2022-09-03T03:08:37.492Z,2.40
2022-09-03T03:09:37.439Z,2.20
2022-09-03T03:10:37.396Z,2.60
2022-09-03T03:11:37.355Z,2.30
2022-09-03T03:12:37.309Z,2.50
2022-09-03T03:13:37.262Z,2.50
2022-09-03T03:14:37.221Z,2.30
2022-09-03T03:15:37.177Z,2.20
2022-09-03T03:16:37.163Z,2.40
2022-09-03T03:17:37.090Z,2.60
2022-09-03T03:18:37.049Z,2.00
2022-09-03T03:19:37.002Z,2.40
2022-09-03T03:20:36.959Z,2.40
2022-09-03T03:21:36.911Z,2.50
2022-09-03T03:22:36.870Z,2.60
2022-09-03T03:23:36.829Z,2.20
2022-09-03T03:24:36.782Z,2.30
2022-09-03T03:25:36.734Z,2.40
2022-09-03T03:26:36.697Z,2.20
2022-09-03T03:27:36.645Z,2.40
2022-09-03T03:28:36.607Z,2.30
2022-09-03T03:29:36.558Z,2.20
2022-09-03T03:30:36.543Z,2.30
2022-09-03T03:31:36.469Z,2.50
2022-09-03T03:32:36.630Z,2.50
2022-09-03T03:33:36.382Z,2.50
2022-09-03T03:34:36.338Z,2.40
2022-09-03T03:35:36.297Z,2.40
2022-09-03T03:36:36.252Z,2.80
2022-09-03T03:37:36.204Z,2.50
2022-09-03T03:38:36.166Z,2.40
2022-09-03T03:39:36.161Z,2.20
2022-09-03T03:40:36.078Z,2.70
2022-09-03T03:41:36.030Z,2.50
2022-09-03T03:42:35.990Z,2.20
2022-09-03T03:43:35.952Z,2.40
2022-09-03T03:44:35.897Z,2.20
2022-09-03T03:45:35.943Z,2.40
2022-09-03T03:46:35.808Z,2.10
2022-09-03T03:47:35.761Z,2.60
2022-09-03T03:48:35.720Z,2.30
2022-09-03T03:49:35.676Z,2.10
2022-09-03T03:50:35.633Z,2.50
2022-09-03T03:51:35.586Z,2.40
2022-09-03T03:52:35.543Z,2.30
2022-09-03T03:53:35.497Z,2.20
2022-09-03T03:54:35.454Z,2.30
2022-09-03T03:55:35.442Z,2.50
2022-09-03T03:56:35.368Z,2.30
2022-09-03T03:57:35.325Z,2.30
2022-09-03T03:58:35.279Z,2.40
2022-09-03T03:59:35.233Z,2.20
2022-09-03T04:00:35.192Z,2.40
2022-09-03T04:01:35.228Z,2.40
2022-09-03T04:02:39.042Z,2.30
2022-09-03T04:03:35.056Z,2.60
2022-09-03T04:04:35.022Z,2.20
2022-09-03T04:05:34.966Z,2.50
2022-09-03T04:06:35.123Z,2.70
2022-09-03T04:07:34.888Z,2.20
2022-09-03T04:08:34.835Z,2.50
2022-09-03T04:09:34.791Z,2.10
2022-09-03T04:10:34.750Z,2.20
2022-09-03T04:11:34.700Z,2.60
2022-09-03T04:12:34.659Z,2.20
2022-09-03T04:13:34.615Z,2.20
2022-09-03T04:14:34.568Z,2.40
2022-09-03T04:15:34.526Z,2.30
2022-09-03T04:16:34.566Z,2.00
2022-09-03T04:17:34.437Z,2.40
2022-09-03T04:18:34.391Z,2.00
2022-09-03T04:19:34.349Z,2.30
2022-09-03T04:20:34.302Z,2.10
2022-09-03T04:21:34.257Z,2.40
2022-09-03T04:22:34.213Z,2.70
2022-09-03T04:23:34.189Z,2.10
2022-09-03T04:24:34.124Z,2.50
2022-09-03T04:25:34.079Z,2.00
2022-09-03T04:26:34.043Z,2.20
2022-09-03T04:27:33.995Z,2.30
2022-09-03T04:28:33.959Z,2.30
2022-09-03T04:29:33.904Z,2.20
2022-09-03T04:30:33.956Z,2.20
2022-09-03T04:31:33.818Z,2.20
2022-09-03T04:32:33.771Z,2.00
2022-09-03T04:33:33.726Z,2.20
2022-09-03T04:34:33.682Z,2.20
2022-09-03T04:35:33.679Z,2.20
2022-09-03T04:36:33.796Z,2.10
2022-09-03T04:37:33.750Z,2.30
2022-09-03T04:38:33.503Z,2.20
2022-09-03T04:39:33.525Z,2.20
2022-09-03T04:40:33.414Z,2.30
2022-09-03T04:41:33.379Z,2.00
2022-09-03T04:42:33.325Z,2.10
2022-09-03T04:43:33.288Z,2.10
2022-09-03T04:44:33.261Z,2.10
2022-09-03T04:45:33.246Z,2.30
2022-09-03T04:46:33.305Z,2.10
2022-09-03T04:47:33.105Z,2.00
2022-09-03T04:48:33.059Z,2.40
2022-09-03T04:49:33.220Z,2.20
2022-09-03T04:50:32.970Z,2.00
2022-09-03T04:51:32.931Z,2.40
2022-09-03T04:52:32.883Z,2.50
2022-09-03T04:53:32.844Z,2.20
2022-09-03T04:54:32.796Z,2.20
2022-09-03T04:55:32.755Z,2.20
2022-09-03T04:56:32.706Z,2.20
2022-09-03T04:57:32.664Z,1.90
2022-09-03T04:58:32.619Z,2.20
2022-09-03T04:59:32.573Z,2.20
2022-09-03T05:00:32.530Z,2.00
2022-09-03T05:01:32.604Z,2.20
2022-09-03T05:02:32.476Z,2.10
2022-09-03T05:03:32.396Z,2.10
2022-09-03T05:04:32.349Z,2.50
2022-09-03T05:05:32.307Z,2.10
2022-09-03T05:06:32.264Z,2.30
2022-09-03T05:07:32.220Z,2.00
2022-09-03T05:08:32.174Z,2.10
2022-09-03T05:09:32.132Z,2.30
2022-09-03T05:10:32.086Z,1.90
2022-09-03T05:11:32.043Z,1.80
2022-09-03T05:12:32.004Z,2.10
2022-09-03T05:13:31.958Z,2.00
2022-09-03T05:14:31.908Z,2.20
2022-09-03T05:15:31.863Z,1.90
2022-09-03T05:16:31.857Z,1.90
2022-09-03T05:17:34.098Z,2.10
2022-09-03T05:18:31.732Z,2.10
2022-09-03T05:19:31.690Z,1.80
2022-09-03T05:20:31.642Z,1.90
2022-09-03T05:21:31.599Z,2.10
2022-09-03T05:22:31.559Z,2.00
2022-09-03T05:23:35.633Z,2.00
2022-09-03T05:24:31.467Z,2.00
2022-09-03T05:25:31.418Z,2.20
2022-09-03T05:26:31.383Z,2.00
2022-09-03T05:27:31.335Z,2.00
2022-09-03T05:28:31.284Z,2.10
2022-09-03T05:29:31.242Z,2.20
2022-09-03T05:30:31.198Z,2.20
2022-09-03T05:31:31.212Z,2.20
2022-09-03T05:32:31.112Z,2.30
2022-09-03T05:33:31.066Z,2.10
2022-09-03T05:34:31.017Z,2.10
2022-09-03T05:35:30.996Z,2.10
2022-09-03T05:36:30.933Z,2.40
2022-09-03T05:37:30.885Z,2.40
2022-09-03T05:38:30.852Z,2.30
2022-09-03T05:39:30.844Z,2.40
2022-09-03T05:40:30.754Z,2.30
2022-09-03T05:41:30.720Z,2.50
2022-09-03T05:42:30.667Z,2.10
2022-09-03T05:43:30.624Z,2.30
2022-09-03T05:44:30.579Z,2.20
2022-09-03T05:45:30.555Z,2.40
2022-09-03T05:46:30.487Z,2.20
2022-09-03T05:47:30.443Z,2.30
2022-09-03T05:48:30.401Z,2.40
2022-09-03T05:49:30.358Z,2.50
2022-09-03T05:50:30.308Z,2.30
2022-09-03T05:51:30.274Z,2.20
2022-09-03T05:52:30.221Z,2.40
2022-09-03T05:53:30.181Z,2.30
2022-09-03T05:54:30.131Z,2.10
2022-09-03T05:55:30.090Z,2.10
2022-09-03T05:56:30.248Z,2.30
2022-09-03T05:57:29.999Z,2.50
2022-09-03T05:58:29.956Z,2.60
2022-09-03T05:59:29.920Z,2.40
2022-09-03T06:00:29.879Z,2.30
2022-09-03T06:01:29.833Z,2.20
2022-09-03T06:02:30.077Z,2.60
2022-09-03T06:03:29.973Z,2.40
2022-09-03T06:04:29.703Z,2.40
2022-09-03T06:05:29.646Z,2.20
2022-09-03T06:06:29.612Z,2.50
2022-09-03T06:07:29.567Z,2.50
2022-09-03T06:11:01.121Z,2.30
2022-09-03T06:12:04.000Z,2.40
2022-09-03T06:13:01.031Z,2.30
2022-09-03T06:14:00.985Z,2.30
2022-09-03T06:15:00.950Z,2.30
2022-09-03T06:16:00.940Z,2.60
2022-09-03T06:17:00.891Z,2.10
2022-09-03T06:18:00.811Z,2.30
2022-09-03T06:19:00.917Z,2.30
2022-09-03T06:20:00.721Z,2.20
2022-09-03T06:21:00.680Z,2.30
2022-09-03T06:22:00.636Z,2.50
2022-09-03T06:23:00.795Z,2.30
2022-09-03T06:24:00.544Z,2.00
2022-09-03T06:25:00.503Z,2.50
2022-09-03T06:26:04.939Z,2.40
2022-09-03T06:27:00.419Z,2.30
2022-09-03T06:28:00.381Z,2.30
2022-09-03T06:29:00.330Z,2.20
2022-09-03T06:30:00.286Z,2.20
2022-09-03T06:31:00.242Z,2.00
2022-09-03T06:32:00.261Z,2.60
2022-09-03T06:33:00.154Z,2.10
2022-09-03T06:34:04.014Z,2.00
2022-09-03T06:35:00.064Z,2.20
2022-09-03T06:36:00.019Z,2.10
2022-09-03T06:36:59.981Z,2.10
2022-09-03T06:38:02.956Z,2.30
2022-09-03T06:38:59.889Z,2.10
2022-09-03T06:39:59.890Z,2.00
2022-09-03T06:40:59.802Z,2.10
2022-09-03T06:41:59.761Z,2.10
2022-09-03T06:42:59.718Z,2.20
2022-09-03T06:43:59.671Z,2.30
2022-09-03T06:44:59.627Z,2.20
2022-09-03T06:46:43.079Z,2.50
2022-09-03T06:47:44.143Z,2.40
2022-09-03T06:48:42.885Z,2.30
2022-09-03T06:49:42.841Z,2.20
2022-09-03T06:50:42.797Z,2.20
2022-09-03T06:51:42.765Z,2.30
2022-09-03T06:52:42.707Z,2.10
2022-09-03T06:53:42.674Z,2.50
2022-09-03T06:54:42.627Z,2.40
2022-09-03T06:55:42.595Z,2.10
2022-09-03T06:56:42.535Z,2.30
2022-09-03T06:57:42.490Z,2.20
2022-09-03T06:58:42.449Z,2.50
2022-09-03T06:59:42.405Z,2.40
2022-09-03T07:00:42.467Z,2.30
2022-09-03T07:01:44.285Z,2.30
2022-09-03T07:02:44.940Z,2.20
2022-09-03T07:03:42.241Z,2.40
2022-09-03T07:04:42.187Z,2.30
2022-09-03T07:05:42.148Z,2.20
2022-09-03T07:06:42.147Z,2.00
2022-09-03T07:07:42.054Z,2.40
2022-09-03T07:08:42.013Z,1.90
2022-09-03T07:09:45.165Z,2.00
2022-09-03T07:10:41.934Z,2.30
2022-09-03T07:11:41.880Z,2.30
2022-09-03T07:12:41.848Z,2.00
2022-09-03T07:13:41.795Z,1.70
2022-09-03T07:14:41.957Z,1.90
2022-09-03T07:15:41.713Z,1.80
2022-09-03T07:16:41.788Z,1.90
2022-09-03T07:17:41.623Z,1.80
2022-09-03T07:18:41.582Z,1.70
2022-09-03T07:19:41.538Z,1.80
2022-09-03T07:20:41.496Z,1.70
2022-09-03T07:21:45.237Z,1.90
2022-09-03T07:22:41.410Z,1.60
2022-09-03T07:23:41.378Z,1.60
2022-09-03T07:24:41.328Z,1.80
2022-09-03T07:25:41.289Z,1.70
2022-09-03T07:26:41.239Z,1.90
2022-09-03T07:27:41.197Z,1.70
2022-09-03T07:28:41.156Z,1.70
2022-09-03T07:29:41.108Z,2.10
2022-09-03T07:30:41.067Z,1.60
2022-09-03T07:31:41.158Z,1.60
2022-09-03T07:32:40.993Z,1.70
2022-09-03T07:33:40.944Z,1.60
2022-09-03T07:34:40.896Z,1.40
2022-09-03T07:35:40.876Z,1.80
2022-09-03T07:36:40.817Z,1.70
2022-09-03T07:37:40.784Z,1.80
2022-09-03T07:38:40.738Z,1.90
2022-09-03T07:39:40.762Z,1.70
2022-09-03T07:40:40.641Z,1.70
2022-09-03T07:41:40.597Z,1.60
2022-09-03T07:42:40.554Z,1.70
2022-09-03T07:43:40.511Z,1.90
2022-09-03T07:44:40.471Z,1.60
2022-09-03T07:45:40.432Z,1.60
2022-09-03T07:46:40.470Z,1.70
2022-09-03T07:47:40.343Z,1.60
2022-09-03T07:48:40.301Z,1.60
2022-09-03T07:51:08.704Z,1.70
2022-09-03T07:52:08.659Z,2.00
2022-09-03T07:53:08.613Z,1.60
2022-09-03T07:54:08.566Z,1.60
2022-09-03T07:55:08.527Z,1.50
2022-09-03T07:56:08.482Z,1.50
2022-09-03T07:57:08.444Z,1.50
2022-09-03T07:58:08.394Z,1.60
2022-09-03T07:59:08.359Z,1.70
2022-09-03T08:00:08.316Z,1.80
2022-09-03T08:01:08.988Z,1.50
2022-09-03T08:02:08.230Z,1.50
2022-09-03T08:03:08.182Z,1.70
2022-09-03T08:04:09.820Z,1.50
2022-09-03T08:05:08.101Z,1.90
2022-09-03T08:06:08.055Z,1.40
2022-09-03T08:07:08.024Z,1.40
2022-09-03T08:08:07.963Z,1.50
2022-09-03T08:09:07.926Z,1.70
2022-09-03T08:10:07.885Z,1.60
2022-09-03T08:11:07.834Z,1.70
2022-09-03T08:12:07.792Z,1.70
2022-09-03T08:13:07.747Z,1.70
2022-09-03T08:14:07.708Z,1.70
2022-09-03T08:15:07.671Z,1.80
2022-09-03T08:16:07.670Z,1.80
2022-09-03T08:17:07.580Z,1.60
2022-09-03T08:18:07.554Z,1.50
2022-09-03T08:19:07.649Z,1.60
2022-09-03T08:20:07.444Z,1.60
2022-09-03T08:21:07.411Z,1.60
2022-09-03T08:22:07.357Z,1.60
2022-09-03T08:23:07.317Z,1.60
2022-09-03T08:24:07.282Z,1.80
2022-09-03T08:25:07.236Z,1.80
2022-09-03T08:26:07.186Z,1.60
2022-09-03T08:27:07.148Z,1.30
2022-09-03T08:28:07.099Z,1.60
2022-09-03T08:29:07.064Z,1.50
2022-09-03T08:30:07.015Z,1.50
2022-09-03T08:31:07.066Z,1.50
2022-09-03T08:32:06.929Z,1.40
2022-09-03T08:33:06.901Z,1.40
2022-09-03T08:34:07.209Z,1.60
2022-09-03T08:35:06.803Z,1.40
2022-09-03T08:36:06.759Z,1.60
2022-09-03T08:37:06.727Z,1.50
2022-09-03T08:38:06.678Z,1.70
2022-09-03T08:39:06.647Z,1.50
2022-09-03T08:40:06.594Z,1.70
2022-09-03T08:41:06.544Z,2.20
2022-09-03T08:42:06.503Z,1.70
2022-09-03T08:43:06.966Z,1.90
2022-09-03T08:44:06.420Z,1.60
2022-09-03T08:45:06.389Z,1.60
2022-09-03T08:46:06.407Z,1.60
2022-09-03T08:47:06.299Z,1.60
2022-09-03T08:48:06.255Z,1.50
2022-09-03T08:49:06.209Z,1.30
2022-09-03T08:50:06.157Z,2.00
2022-09-03T08:51:06.125Z,1.70
2022-09-03T08:52:06.075Z,1.60
2022-09-03T08:53:06.037Z,1.50
2022-09-03T08:54:06.007Z,1.40
2022-09-03T08:55:05.948Z,1.50
2022-09-03T08:56:05.903Z,1.40
2022-09-03T08:57:05.868Z,1.50
2022-09-03T08:58:05.823Z,1.70
2022-09-03T08:59:05.780Z,1.90
2022-09-03T09:00:05.740Z,1.90
2022-09-03T09:01:05.710Z,1.60
2022-09-03T09:02:05.838Z,1.80
2022-09-03T09:03:05.708Z,1.40
2022-09-03T09:04:05.569Z,1.50
2022-09-03T09:05:06.029Z,1.60
2022-09-03T09:06:05.482Z,1.80
2022-09-03T09:07:05.457Z,1.80
2022-09-03T09:08:05.398Z,1.70
2022-09-03T09:09:05.369Z,1.50
2022-09-03T09:10:05.314Z,1.70
2022-09-03T09:11:05.285Z,1.90
2022-09-03T09:12:05.233Z,1.80
2022-09-03T09:13:05.188Z,1.50
2022-09-03T09:14:05.149Z,1.60
2022-09-03T09:15:05.132Z,1.70
2022-09-03T09:16:05.201Z,1.70
2022-09-03T09:17:05.028Z,1.70
2022-09-03T09:18:04.978Z,1.80
2022-09-03T09:19:04.942Z,1.80
2022-09-03T09:20:04.902Z,1.50
2022-09-03T09:21:04.858Z,1.50
2022-09-03T09:22:04.808Z,1.40
2022-09-03T09:23:04.776Z,1.50
2022-09-03T09:24:04.727Z,1.30
2022-09-03T09:25:04.688Z,1.50
2022-09-03T09:26:04.640Z,1.50
2022-09-03T09:27:04.607Z,1.50
2022-09-03T09:28:04.564Z,1.50
2022-09-03T09:29:04.546Z,1.40
2022-09-03T09:30:04.491Z,1.50
2022-09-03T09:31:04.551Z,1.60
2022-09-03T09:32:04.424Z,1.40
2022-09-03T09:33:04.361Z,1.40
2022-09-03T09:34:04.527Z,1.40
2022-09-03T09:35:04.271Z,1.20
2022-09-03T09:36:04.256Z,1.50
2022-09-03T09:37:04.188Z,1.30
2022-09-03T09:38:04.145Z,1.20
2022-09-03T09:39:04.313Z,1.20
2022-09-03T09:40:04.124Z,1.40
2022-09-03T09:41:04.019Z,1.30
2022-09-03T09:42:03.971Z,1.30
2022-09-03T09:43:03.972Z,1.50
2022-09-03T09:44:03.897Z,1.30
2022-09-03T09:45:03.856Z,1.30
2022-09-03T09:46:03.837Z,1.40
2022-09-03T09:47:03.786Z,1.30
2022-09-03T09:48:03.724Z,1.30
2022-09-03T09:49:03.690Z,1.60
2022-09-03T09:50:03.855Z,1.50
2022-09-03T09:51:03.611Z,1.40
2022-09-03T09:52:03.557Z,1.30
2022-09-03T09:53:03.518Z,1.60
2022-09-03T09:54:03.678Z,1.50
2022-09-03T09:55:03.434Z,1.70
2022-09-03T09:56:03.398Z,1.40
2022-09-03T09:57:03.354Z,1.40
2022-09-03T09:58:03.319Z,1.30
2022-09-03T09:59:03.285Z,1.30
2022-09-03T10:00:03.226Z,1.30
2022-09-03T10:01:03.190Z,1.30
2022-09-03T10:02:03.237Z,1.60
2022-09-03T10:03:03.130Z,1.40
2022-09-03T10:04:03.060Z,1.40
2022-09-03T10:05:03.032Z,1.50
2022-09-03T10:06:02.979Z,1.40
2022-09-03T10:07:02.950Z,1.70
2022-09-03T10:08:02.901Z,1.60
2022-09-03T10:09:02.857Z,1.60
2022-09-03T10:10:02.812Z,1.70
2022-09-03T10:11:02.774Z,1.50
2022-09-03T10:12:02.732Z,1.40
2022-09-03T10:13:02.691Z,1.60
2022-09-03T10:14:02.649Z,1.40
2022-09-03T10:15:02.609Z,1.50
2022-09-03T10:16:02.615Z,1.50
2022-09-03T10:17:02.525Z,1.50
2022-09-03T10:18:02.483Z,1.50
2022-09-03T10:19:02.444Z,1.50
2022-09-03T10:20:02.399Z,1.40
2022-09-03T10:21:02.404Z,1.50
2022-09-03T10:22:02.317Z,1.60
2022-09-03T10:23:02.278Z,1.50
2022-09-03T10:24:07.159Z,1.40
2022-09-03T10:25:02.197Z,1.40
2022-09-03T10:26:02.157Z,1.50
2022-09-03T10:27:02.114Z,1.60
2022-09-03T10:28:02.088Z,1.20
2022-09-03T10:29:02.033Z,1.40
2022-09-03T10:30:01.988Z,1.30
2022-09-03T10:31:02.013Z,1.30
2022-09-03T10:32:01.907Z,1.60
2022-09-03T10:33:01.869Z,2.10
2022-09-03T10:34:01.828Z,1.70
2022-09-03T10:35:01.785Z,1.50
2022-09-03T10:36:01.743Z,1.50
2022-09-03T10:37:01.706Z,1.50
2022-09-03T10:38:01.663Z,1.60
2022-09-03T10:39:01.622Z,1.60
2022-09-03T10:40:01.661Z,1.80
2022-09-03T10:41:01.541Z,1.40
2022-09-03T10:42:01.501Z,1.60
2022-09-03T10:43:01.463Z,1.40
2022-09-03T10:44:01.415Z,1.60
2022-09-03T10:45:01.378Z,1.50
2022-09-03T10:46:01.390Z,1.80
2022-09-03T10:47:01.299Z,1.70
2022-09-03T10:48:01.256Z,1.50
2022-09-03T10:49:01.222Z,1.70
2022-09-03T10:50:01.174Z,1.40
2022-09-03T10:51:01.133Z,1.50
2022-09-03T10:52:01.092Z,1.70
2022-09-03T10:53:01.053Z,2.20
2022-09-03T10:54:01.009Z,1.50
2022-09-03T10:55:00.970Z,1.50
2022-09-03T10:56:00.928Z,1.70
2022-09-03T10:57:00.889Z,1.50
2022-09-03T10:58:00.884Z,1.50
2022-09-03T10:59:00.808Z,1.70
2022-09-03T11:00:00.767Z,1.70
2022-09-03T11:01:00.791Z,1.60
2022-09-03T11:02:00.686Z,1.40
2022-09-03T11:03:00.682Z,1.60
2022-09-03T11:04:00.605Z,1.50
2022-09-03T11:05:00.570Z,1.80
2022-09-03T11:06:00.522Z,1.70
2022-09-03T11:07:00.484Z,1.60
2022-09-03T11:08:00.444Z,1.50
2022-09-03T11:09:05.842Z,1.60
2022-09-03T11:10:00.362Z,1.40
2022-09-03T11:12:00.281Z,1.60
2022-09-03T11:13:00.242Z,1.50
2022-09-03T11:14:00.203Z,1.60
2022-09-03T11:15:00.159Z,1.70
2022-09-03T11:16:00.300Z,1.80
2022-09-03T11:17:00.080Z,1.70
2022-09-03T11:18:00.049Z,1.80
2022-09-03T11:18:59.998Z,1.70
2022-09-03T11:19:59.961Z,1.70
2022-09-03T11:20:59.919Z,1.70
2022-09-03T11:21:59.878Z,1.60
2022-09-03T11:22:59.838Z,1.90
2022-09-03T11:23:59.806Z,1.60
2022-09-03T11:24:59.759Z,2.00
2022-09-03T11:25:59.718Z,1.70
2022-09-03T11:26:59.677Z,1.70
2022-09-03T11:27:59.643Z,1.80
2022-09-03T11:28:59.598Z,2.00
2022-09-03T11:29:59.560Z,1.70
2022-09-03T11:30:59.597Z,1.80
2022-09-03T11:31:59.480Z,1.90
2022-09-03T11:32:59.437Z,1.70
2022-09-03T11:33:59.399Z,1.70
2022-09-03T11:34:59.361Z,1.80
2022-09-03T11:35:59.320Z,1.80
2022-09-03T11:36:59.278Z,2.00
2022-09-03T11:37:59.237Z,1.70
2022-09-03T11:38:59.197Z,1.80
2022-09-03T11:39:59.210Z,1.60
2022-09-03T11:40:59.156Z,2.00
2022-09-03T11:41:59.083Z,1.90
2022-09-03T11:42:59.038Z,2.00
2022-09-03T11:44:02.546Z,1.80
2022-09-03T11:44:58.959Z,1.80
2022-09-03T11:45:58.995Z,1.60
2022-09-03T11:46:58.882Z,1.80
2022-09-03T11:47:58.843Z,1.90
2022-09-03T11:48:58.806Z,1.70
2022-09-03T11:49:58.764Z,2.00
2022-09-03T11:50:58.720Z,1.70
2022-09-03T11:51:58.683Z,1.70
2022-09-03T11:52:58.642Z,1.90
2022-09-03T11:53:58.602Z,1.80
2022-09-03T11:54:58.565Z,1.80
2022-09-03T11:55:58.524Z,1.90
2022-09-03T11:56:58.486Z,1.70
2022-09-03T11:57:58.449Z,1.80
2022-09-03T11:58:58.405Z,1.80
2022-09-03T11:59:58.370Z,1.80
2022-09-03T12:00:58.327Z,2.00
2022-09-03T12:01:58.291Z,1.60
2022-09-03T12:02:59.269Z,1.60
2022-09-03T12:03:58.212Z,1.90
2022-09-03T12:04:58.301Z,1.80
2022-09-03T12:05:58.133Z,1.80
2022-09-03T12:06:58.094Z,2.10
2022-09-03T12:07:58.052Z,1.70
2022-09-03T12:08:58.219Z,1.70
2022-09-03T12:09:57.972Z,1.90
2022-09-03T12:10:57.939Z,1.70
2022-09-03T12:11:57.897Z,1.80
2022-09-03T12:12:57.859Z,1.80
2022-09-03T12:13:57.818Z,1.70
2022-09-03T12:14:57.781Z,2.00
2022-09-03T12:15:57.770Z,1.90
2022-09-03T12:16:57.705Z,1.80
2022-09-03T12:17:57.866Z,1.70
2022-09-03T12:18:57.627Z,1.80
2022-09-03T12:19:57.586Z,1.80
2022-09-03T12:20:57.554Z,1.90
2022-09-03T12:21:57.515Z,2.10
2022-09-03T12:22:57.479Z,1.60
2022-09-03T12:23:58.387Z,1.50
2022-09-03T12:24:57.394Z,1.80
2022-09-03T12:25:57.354Z,1.90
2022-09-03T12:26:57.317Z,1.80
2022-09-03T12:27:57.277Z,1.70
2022-09-03T12:28:57.240Z,1.60
2022-09-03T12:29:57.200Z,1.70
2022-09-03T12:30:57.290Z,1.70
2022-09-03T12:31:57.125Z,1.60
2022-09-03T12:32:57.087Z,1.60
2022-09-03T12:33:57.046Z,2.00
2022-09-03T12:34:57.011Z,1.70
2022-09-03T12:35:58.935Z,1.70
2022-09-03T12:36:56.934Z,1.60
2022-09-03T12:38:06.328Z,1.80
2022-09-03T12:39:13.250Z,1.80
2022-09-03T12:40:05.943Z,1.90
2022-09-03T12:41:56.742Z,1.80
2022-09-03T12:43:37.123Z,1.70
2022-09-03T12:43:56.666Z,1.90
2022-09-03T12:44:56.631Z,1.60
2022-09-03T12:46:11.982Z,1.70
2022-09-03T12:47:33.452Z,1.80
2022-09-03T12:47:56.572Z,1.80
2022-09-03T12:49:56.439Z,1.90
2022-09-03T12:50:56.932Z,1.70
2022-09-03T12:51:59.737Z,1.80
2022-09-03T12:52:56.324Z,1.80
2022-09-03T12:53:56.282Z,1.90
2022-09-03T12:54:56.244Z,2.00
2022-09-03T12:55:56.210Z,1.80
2022-09-03T12:56:56.172Z,1.70
2022-09-03T12:57:57.757Z,1.80
2022-09-03T12:58:56.093Z,1.80
2022-09-03T12:59:56.053Z,1.70
2022-09-03T13:00:56.048Z,1.90
2022-09-03T13:01:56.158Z,1.90
2022-09-03T13:02:55.956Z,1.70
2022-09-03T13:03:55.903Z,1.90
2022-09-03T13:04:55.862Z,1.90
2022-09-03T13:05:55.831Z,2.00
2022-09-03T13:06:55.788Z,1.80
2022-09-03T13:07:55.747Z,1.70
2022-09-03T13:08:55.709Z,1.80
2022-09-03T13:09:55.665Z,1.80
2022-09-03T13:10:55.627Z,1.90
2022-09-03T13:11:55.700Z,1.60
2022-09-03T13:12:55.555Z,1.80
2022-09-03T13:13:55.511Z,1.90
2022-09-03T13:14:55.478Z,1.80
2022-09-03T13:15:55.433Z,1.80
2022-09-03T13:16:55.434Z,1.90
2022-09-03T13:17:55.353Z,1.70
2022-09-03T13:18:55.521Z,1.60
2022-09-03T13:19:55.277Z,1.70
2022-09-03T13:20:55.241Z,1.80
2022-09-03T13:21:55.198Z,1.70
2022-09-03T13:22:55.160Z,1.80
2022-09-03T13:23:55.120Z,1.70
2022-09-03T13:24:55.081Z,1.80
2022-09-03T13:25:55.041Z,1.70
2022-09-03T13:26:55.007Z,1.80